sensor_id;sensor_type;location;lat;lon;timestamp;temperature;humidity
70079;DHT22;57451;52.496;13.456;2023-03-26T00:01:16;8.40;75.60
70079;DHT22;57451;52.496;13.456;2023-03-26T00:03:44;8.40;75.70
70079;DHT22;57451;52.496;13.456;2023-03-26T00:06:15;8.40;75.90
70079;DHT22;57451;52.496;13.456;2023-03-26T00:08:44;8.40;75.60
70079;DHT22;57451;52.496;13.456;2023-03-26T00:11:13;8.40;75.30
70079;DHT22;57451;52.496;13.456;2023-03-26T00:13:43;8.40;75.30
70079;DHT22;57451;52.496;13.456;2023-03-26T00:16:16;8.30;75.30
70079;DHT22;57451;52.496;13.456;2023-03-26T00:18:45;8.40;75.10
70079;DHT22;57451;52.496;13.456;2023-03-26T00:21:14;8.40;74.90
70079;DHT22;57451;52.496;13.456;2023-03-26T00:23:43;8.40;74.80
70079;DHT22;57451;52.496;13.456;2023-03-26T00:26:11;8.40;74.80
70079;DHT22;57451;52.496;13.456;2023-03-26T00:28:40;8.40;74.50
70079;DHT22;57451;52.496;13.456;2023-03-26T00:31:11;8.40;74.40
70079;DHT22;57451;52.496;13.456;2023-03-26T00:33:41;8.50;74.20
70079;DHT22;57451;52.496;13.456;2023-03-26T00:36:10;8.40;73.90
70079;DHT22;57451;52.496;13.456;2023-03-26T00:38:41;8.40;73.90
70079;DHT22;57451;52.496;13.456;2023-03-26T00:41:11;8.40;73.80
70079;DHT22;57451;52.496;13.456;2023-03-26T00:43:51;8.40;73.50
70079;DHT22;57451;52.496;13.456;2023-03-26T00:46:19;8.50;73.40
70079;DHT22;57451;52.496;13.456;2023-03-26T00:48:48;8.50;73.20
70079;DHT22;57451;52.496;13.456;2023-03-26T00:51:18;8.50;73.10
70079;DHT22;57451;52.496;13.456;2023-03-26T00:53:48;8.40;73.00
70079;DHT22;57451;52.496;13.456;2023-03-26T00:56:16;8.50;73.00
70079;DHT22;57451;52.496;13.456;2023-03-26T00:58:44;8.50;73.10
70079;DHT22;57451;52.496;13.456;2023-03-26T01:01:15;8.50;72.90
70079;DHT22;57451;52.496;13.456;2023-03-26T01:03:44;8.50;72.70
70079;DHT22;57451;52.496;13.456;2023-03-26T01:06:30;8.40;72.70
70079;DHT22;57451;52.496;13.456;2023-03-26T01:09:02;8.40;72.80
70079;DHT22;57451;52.496;13.456;2023-03-26T01:11:32;8.40;73.00
70079;DHT22;57451;52.496;13.456;2023-03-26T01:14:04;8.40;72.40
70079;DHT22;57451;52.496;13.456;2023-03-26T01:16:37;8.40;73.00
70079;DHT22;57451;52.496;13.456;2023-03-26T01:19:10;8.40;73.20
70079;DHT22;57451;52.496;13.456;2023-03-26T01:21:40;8.40;73.10
70079;DHT22;57451;52.496;13.456;2023-03-26T01:24:09;8.40;73.40
70079;DHT22;57451;52.496;13.456;2023-03-26T01:27:07;8.50;73.30
70079;DHT22;57451;52.496;13.456;2023-03-26T01:29:41;8.40;73.70
70079;DHT22;57451;52.496;13.456;2023-03-26T01:32:21;8.40;74.20
70079;DHT22;57451;52.496;13.456;2023-03-26T01:35:00;8.40;74.60
70079;DHT22;57451;52.496;13.456;2023-03-26T01:37:38;8.40;75.00
70079;DHT22;57451;52.496;13.456;2023-03-26T01:40:20;8.40;75.10
70079;DHT22;57451;52.496;13.456;2023-03-26T01:42:55;8.50;74.80
70079;DHT22;57451;52.496;13.456;2023-03-26T01:45:28;8.50;74.80
70079;DHT22;57451;52.496;13.456;2023-03-26T01:47:57;8.50;74.70
70079;DHT22;57451;52.496;13.456;2023-03-26T01:50:24;8.50;75.00
70079;DHT22;57451;52.496;13.456;2023-03-26T01:52:52;8.40;75.30
70079;DHT22;57451;52.496;13.456;2023-03-26T01:55:22;8.30;75.20
70079;DHT22;57451;52.496;13.456;2023-03-26T01:57:58;8.30;74.80
70079;DHT22;57451;52.496;13.456;2023-03-26T02:00:33;8.30;74.80
70079;DHT22;57451;52.496;13.456;2023-03-26T02:03:13;8.30;74.70
70079;DHT22;57451;52.496;13.456;2023-03-26T02:05:50;8.30;74.80
70079;DHT22;57451;52.496;13.456;2023-03-26T02:08:23;8.30;74.90
70079;DHT22;57451;52.496;13.456;2023-03-26T02:10:55;8.20;75.30
70079;DHT22;57451;52.496;13.456;2023-03-26T02:13:24;8.20;75.40
70079;DHT22;57451;52.496;13.456;2023-03-26T02:15:57;8.10;75.80
70079;DHT22;57451;52.496;13.456;2023-03-26T02:18:25;8.10;76.10
70079;DHT22;57451;52.496;13.456;2023-03-26T02:21:04;8.10;76.00
70079;DHT22;57451;52.496;13.456;2023-03-26T02:23:32;8.10;76.00
70079;DHT22;57451;52.496;13.456;2023-03-26T02:26:06;8.10;76.00
70079;DHT22;57451;52.496;13.456;2023-03-26T02:28:37;8.10;76.00
70079;DHT22;57451;52.496;13.456;2023-03-26T02:31:05;8.10;76.00
70079;DHT22;57451;52.496;13.456;2023-03-26T02:33:36;8.20;75.80
70079;DHT22;57451;52.496;13.456;2023-03-26T02:36:04;8.20;75.60
70079;DHT22;57451;52.496;13.456;2023-03-26T02:38:32;8.20;75.40
70079;DHT22;57451;52.496;13.456;2023-03-26T02:41:05;8.10;75.80
70079;DHT22;57451;52.496;13.456;2023-03-26T02:43:49;8.10;75.70
70079;DHT22;57451;52.496;13.456;2023-03-26T02:46:20;8.10;75.60
70079;DHT22;57451;52.496;13.456;2023-03-26T02:48:58;8.00;75.80
70079;DHT22;57451;52.496;13.456;2023-03-26T02:51:26;7.90;76.10
70079;DHT22;57451;52.496;13.456;2023-03-26T02:54:20;7.90;76.10
70079;DHT22;57451;52.496;13.456;2023-03-26T02:57:15;7.90;76.20
70079;DHT22;57451;52.496;13.456;2023-03-26T02:59:42;8.00;76.00
70079;DHT22;57451;52.496;13.456;2023-03-26T03:02:30;8.00;76.00
70079;DHT22;57451;52.496;13.456;2023-03-26T03:05:10;7.90;75.90
70079;DHT22;57451;52.496;13.456;2023-03-26T03:07:38;7.90;76.30
70079;DHT22;57451;52.496;13.456;2023-03-26T03:10:07;7.90;76.10
70079;DHT22;57451;52.496;13.456;2023-03-26T03:13:12;8.00;76.00
70079;DHT22;57451;52.496;13.456;2023-03-26T03:15:41;7.90;76.40
70079;DHT22;57451;52.496;13.456;2023-03-26T03:18:08;7.90;76.40
70079;DHT22;57451;52.496;13.456;2023-03-26T03:20:36;7.90;76.50
70079;DHT22;57451;52.496;13.456;2023-03-26T03:23:04;7.80;76.80
70079;DHT22;57451;52.496;13.456;2023-03-26T03:25:31;7.80;76.90
70079;DHT22;57451;52.496;13.456;2023-03-26T03:28:00;7.90;77.00
70079;DHT22;57451;52.496;13.456;2023-03-26T03:30:28;7.90;76.60
70079;DHT22;57451;52.496;13.456;2023-03-26T03:33:09;7.90;76.60
70079;DHT22;57451;52.496;13.456;2023-03-26T03:35:37;8.00;76.40
70079;DHT22;57451;52.496;13.456;2023-03-26T03:38:06;8.00;76.30
70079;DHT22;57451;52.496;13.456;2023-03-26T03:40:43;8.10;76.10
70079;DHT22;57451;52.496;13.456;2023-03-26T03:43:12;8.10;76.10
70079;DHT22;57451;52.496;13.456;2023-03-26T03:46:01;8.10;76.00
70079;DHT22;57451;52.496;13.456;2023-03-26T03:48:34;8.20;75.90
70079;DHT22;57451;52.496;13.456;2023-03-26T03:51:06;8.20;76.00
70079;DHT22;57451;52.496;13.456;2023-03-26T03:53:45;8.20;76.00
70079;DHT22;57451;52.496;13.456;2023-03-26T03:56:16;8.10;76.10
70079;DHT22;57451;52.496;13.456;2023-03-26T03:59:04;8.00;76.10
70079;DHT22;57451;52.496;13.456;2023-03-26T04:01:35;8.00;76.20
70079;DHT22;57451;52.496;13.456;2023-03-26T04:04:08;8.00;76.30
70079;DHT22;57451;52.496;13.456;2023-03-26T04:06:50;7.90;76.30
70079;DHT22;57451;52.496;13.456;2023-03-26T04:09:18;8.00;76.00
70079;DHT22;57451;52.496;13.456;2023-03-26T04:11:47;8.10;75.60
70079;DHT22;57451;52.496;13.456;2023-03-26T04:14:33;8.10;75.30
70079;DHT22;57451;52.496;13.456;2023-03-26T04:17:08;8.10;75.20
70079;DHT22;57451;52.496;13.456;2023-03-26T04:19:37;8.10;75.30
70079;DHT22;57451;52.496;13.456;2023-03-26T04:22:07;8.10;75.30
70079;DHT22;57451;52.496;13.456;2023-03-26T04:24:42;8.10;75.30
70079;DHT22;57451;52.496;13.456;2023-03-26T04:27:29;8.10;75.40
70079;DHT22;57451;52.496;13.456;2023-03-26T04:30:19;8.00;75.80
70079;DHT22;57451;52.496;13.456;2023-03-26T04:33:03;8.00;75.80
70079;DHT22;57451;52.496;13.456;2023-03-26T04:35:36;8.00;76.00
70079;DHT22;57451;52.496;13.456;2023-03-26T04:38:08;8.00;76.00
70079;DHT22;57451;52.496;13.456;2023-03-26T04:40:39;8.10;75.90
70079;DHT22;57451;52.496;13.456;2023-03-26T04:43:31;8.10;75.90
70079;DHT22;57451;52.496;13.456;2023-03-26T04:46:15;8.00;76.30
70079;DHT22;57451;52.496;13.456;2023-03-26T04:48:56;7.90;76.60
70079;DHT22;57451;52.496;13.456;2023-03-26T04:51:26;8.00;76.40
70079;DHT22;57451;52.496;13.456;2023-03-26T04:53:59;7.90;76.40
70079;DHT22;57451;52.496;13.456;2023-03-26T04:56:44;7.90;76.40
70079;DHT22;57451;52.496;13.456;2023-03-26T04:59:28;7.90;76.30
70079;DHT22;57451;52.496;13.456;2023-03-26T05:01:57;7.90;75.90
70079;DHT22;57451;52.496;13.456;2023-03-26T05:04:30;7.90;75.50
70079;DHT22;57451;52.496;13.456;2023-03-26T05:07:01;7.90;75.60
70079;DHT22;57451;52.496;13.456;2023-03-26T05:09:37;7.90;75.20
70079;DHT22;57451;52.496;13.456;2023-03-26T05:12:11;7.90;75.20
70079;DHT22;57451;52.496;13.456;2023-03-26T05:14:50;7.90;75.20
70079;DHT22;57451;52.496;13.456;2023-03-26T05:17:27;7.90;75.10
70079;DHT22;57451;52.496;13.456;2023-03-26T05:19:59;7.90;75.30
70079;DHT22;57451;52.496;13.456;2023-03-26T05:22:26;7.90;75.60
70079;DHT22;57451;52.496;13.456;2023-03-26T05:25:09;7.90;75.70
70079;DHT22;57451;52.496;13.456;2023-03-26T05:27:37;7.90;75.80
70079;DHT22;57451;52.496;13.456;2023-03-26T05:30:06;7.90;75.90
70079;DHT22;57451;52.496;13.456;2023-03-26T05:32:42;7.90;75.80
70079;DHT22;57451;52.496;13.456;2023-03-26T05:35:17;7.90;76.10
70079;DHT22;57451;52.496;13.456;2023-03-26T05:37:46;7.90;76.00
70079;DHT22;57451;52.496;13.456;2023-03-26T05:40:14;7.90;75.90
70079;DHT22;57451;52.496;13.456;2023-03-26T05:42:50;7.90;76.00
70079;DHT22;57451;52.496;13.456;2023-03-26T05:45:40;7.80;76.50
70079;DHT22;57451;52.496;13.456;2023-03-26T05:48:16;7.80;76.60
70079;DHT22;57451;52.496;13.456;2023-03-26T05:50:46;7.90;76.40
70079;DHT22;57451;52.496;13.456;2023-03-26T05:53:14;7.90;76.20
70079;DHT22;57451;52.496;13.456;2023-03-26T05:56:05;7.90;76.10
70079;DHT22;57451;52.496;13.456;2023-03-26T05:58:51;8.00;75.80
70079;DHT22;57451;52.496;13.456;2023-03-26T06:01:37;8.00;75.50
70079;DHT22;57451;52.496;13.456;2023-03-26T06:04:24;7.90;75.30
70079;DHT22;57451;52.496;13.456;2023-03-26T06:07:16;8.00;75.40
70079;DHT22;57451;52.496;13.456;2023-03-26T06:09:52;8.00;75.30
70079;DHT22;57451;52.496;13.456;2023-03-26T06:12:20;8.00;75.40
70079;DHT22;57451;52.496;13.456;2023-03-26T06:14:48;8.00;75.40
70079;DHT22;57451;52.496;13.456;2023-03-26T06:17:19;7.90;75.20
70079;DHT22;57451;52.496;13.456;2023-03-26T06:20:09;7.90;75.50
70079;DHT22;57451;52.496;13.456;2023-03-26T06:22:41;8.00;75.40
70079;DHT22;57451;52.496;13.456;2023-03-26T06:25:32;8.10;74.90
70079;DHT22;57451;52.496;13.456;2023-03-26T06:28:15;8.10;75.00
70079;DHT22;57451;52.496;13.456;2023-03-26T06:30:52;8.10;74.80
70079;DHT22;57451;52.496;13.456;2023-03-26T06:33:34;8.00;74.70
70079;DHT22;57451;52.496;13.456;2023-03-26T06:36:02;8.10;74.60
70079;DHT22;57451;52.496;13.456;2023-03-26T06:38:31;8.10;74.50
70079;DHT22;57451;52.496;13.456;2023-03-26T06:41:02;8.20;74.50
70079;DHT22;57451;52.496;13.456;2023-03-26T06:43:48;8.30;74.30
70079;DHT22;57451;52.496;13.456;2023-03-26T06:46:41;8.30;73.90
70079;DHT22;57451;52.496;13.456;2023-03-26T06:49:44;8.20;74.20
70079;DHT22;57451;52.496;13.456;2023-03-26T06:52:31;8.30;73.90
70079;DHT22;57451;52.496;13.456;2023-03-26T06:55:22;8.30;73.20
70079;DHT22;57451;52.496;13.456;2023-03-26T06:58:10;8.30;73.30
70079;DHT22;57451;52.496;13.456;2023-03-26T07:01:03;8.30;73.50
70079;DHT22;57451;52.496;13.456;2023-03-26T07:03:49;8.40;73.50
70079;DHT22;57451;52.496;13.456;2023-03-26T07:06:35;8.40;73.30
70079;DHT22;57451;52.496;13.456;2023-03-26T07:09:21;8.50;73.30
70079;DHT22;57451;52.496;13.456;2023-03-26T07:12:02;8.40;72.60
70079;DHT22;57451;52.496;13.456;2023-03-26T07:14:52;8.40;72.70
70079;DHT22;57451;52.496;13.456;2023-03-26T07:17:42;8.40;73.10
70079;DHT22;57451;52.496;13.456;2023-03-26T07:20:19;8.40;73.40
70079;DHT22;57451;52.496;13.456;2023-03-26T07:22:47;8.50;74.00
70079;DHT22;57451;52.496;13.456;2023-03-26T07:25:28;8.50;74.20
70079;DHT22;57451;52.496;13.456;2023-03-26T07:28:22;8.70;73.90
70079;DHT22;57451;52.496;13.456;2023-03-26T07:31:24;8.70;72.60
70079;DHT22;57451;52.496;13.456;2023-03-26T07:34:21;8.70;71.90
70079;DHT22;57451;52.496;13.456;2023-03-26T07:37:18;8.80;72.00
70079;DHT22;57451;52.496;13.456;2023-03-26T07:40:13;8.80;71.30
70079;DHT22;57451;52.496;13.456;2023-03-26T07:43:21;8.90;71.60
70079;DHT22;57451;52.496;13.456;2023-03-26T07:45:54;8.90;71.10
70079;DHT22;57451;52.496;13.456;2023-03-26T07:48:38;9.00;70.90
70079;DHT22;57451;52.496;13.456;2023-03-26T07:51:11;9.10;70.30
70079;DHT22;57451;52.496;13.456;2023-03-26T07:53:48;9.10;68.70
70079;DHT22;57451;52.496;13.456;2023-03-26T07:56:37;9.00;68.70
70079;DHT22;57451;52.496;13.456;2023-03-26T07:59:30;9.10;68.50
70079;DHT22;57451;52.496;13.456;2023-03-26T08:02:40;9.10;67.70
70079;DHT22;57451;52.496;13.456;2023-03-26T08:05:49;9.00;67.30
70079;DHT22;57451;52.496;13.456;2023-03-26T08:08:46;8.80;66.70
70079;DHT22;57451;52.496;13.456;2023-03-26T08:11:47;8.90;67.90
70079;DHT22;57451;52.496;13.456;2023-03-26T08:14:31;9.00;67.70
70079;DHT22;57451;52.496;13.456;2023-03-26T08:17:04;8.90;68.00
70079;DHT22;57451;52.496;13.456;2023-03-26T08:19:51;8.90;68.30
70079;DHT22;57451;52.496;13.456;2023-03-26T08:22:26;8.90;67.50
70079;DHT22;57451;52.496;13.456;2023-03-26T08:25:18;8.80;67.30
70079;DHT22;57451;52.496;13.456;2023-03-26T08:27:57;8.70;67.20
70079;DHT22;57451;52.496;13.456;2023-03-26T08:30:30;8.80;68.00
70079;DHT22;57451;52.496;13.456;2023-03-26T08:32:59;8.90;68.10
70079;DHT22;57451;52.496;13.456;2023-03-26T08:35:28;8.90;68.10
70079;DHT22;57451;52.496;13.456;2023-03-26T08:37:56;8.80;67.60
70079;DHT22;57451;52.496;13.456;2023-03-26T08:40:51;8.80;68.10
70079;DHT22;57451;52.496;13.456;2023-03-26T08:43:40;8.80;67.40
70079;DHT22;57451;52.496;13.456;2023-03-26T08:46:49;8.70;67.60
70079;DHT22;57451;52.496;13.456;2023-03-26T08:49:41;8.80;68.20
70079;DHT22;57451;52.496;13.456;2023-03-26T08:52:40;8.90;68.30
70079;DHT22;57451;52.496;13.456;2023-03-26T08:55:39;9.00;68.10
70079;DHT22;57451;52.496;13.456;2023-03-26T08:58:33;9.00;67.90
70079;DHT22;57451;52.496;13.456;2023-03-26T09:01:27;9.00;68.00
70079;DHT22;57451;52.496;13.456;2023-03-26T09:04:35;9.00;68.00
70079;DHT22;57451;52.496;13.456;2023-03-26T09:10:23;9.10;68.80
70079;DHT22;57451;52.496;13.456;2023-03-26T09:13:29;9.20;67.90
70079;DHT22;57451;52.496;13.456;2023-03-26T09:22:43;9.50;67.20
70079;DHT22;57451;52.496;13.456;2023-03-26T09:25:24;9.40;66.80
70079;DHT22;57451;52.496;13.456;2023-03-26T09:28:20;9.50;66.70
70079;DHT22;57451;52.496;13.456;2023-03-26T09:31:09;9.50;66.50
70079;DHT22;57451;52.496;13.456;2023-03-26T09:33:56;9.50;65.80
70079;DHT22;57451;52.496;13.456;2023-03-26T09:36:40;9.60;66.70
70079;DHT22;57451;52.496;13.456;2023-03-26T09:39:33;9.60;65.80
70079;DHT22;57451;52.496;13.456;2023-03-26T09:42:08;9.60;65.90
70079;DHT22;57451;52.496;13.456;2023-03-26T09:45:04;9.70;65.30
70079;DHT22;57451;52.496;13.456;2023-03-26T09:48:03;9.80;66.10
70079;DHT22;57451;52.496;13.456;2023-03-26T09:51:06;9.80;65.80
70079;DHT22;57451;52.496;13.456;2023-03-26T09:53:52;9.60;66.80
70079;DHT22;57451;52.496;13.456;2023-03-26T09:56:37;9.60;67.50
70079;DHT22;57451;52.496;13.456;2023-03-26T10:02:15;9.60;68.10
70079;DHT22;57451;52.496;13.456;2023-03-26T10:05:16;9.70;68.50
70079;DHT22;57451;52.496;13.456;2023-03-26T10:08:11;9.70;68.50
70079;DHT22;57451;52.496;13.456;2023-03-26T10:10:47;9.70;68.50
70079;DHT22;57451;52.496;13.456;2023-03-26T10:13:27;9.70;68.30
70079;DHT22;57451;52.496;13.456;2023-03-26T10:16:14;9.70;68.20
70079;DHT22;57451;52.496;13.456;2023-03-26T10:18:55;9.70;68.40
70079;DHT22;57451;52.496;13.456;2023-03-26T10:24:36;9.60;68.80
70079;DHT22;57451;52.496;13.456;2023-03-26T10:27:16;9.60;68.50
70079;DHT22;57451;52.496;13.456;2023-03-26T10:30:19;9.60;68.70
70079;DHT22;57451;52.496;13.456;2023-03-26T10:32:56;9.60;68.70
70079;DHT22;57451;52.496;13.456;2023-03-26T10:35:40;9.60;68.30
70079;DHT22;57451;52.496;13.456;2023-03-26T10:38:26;9.70;68.50
70079;DHT22;57451;52.496;13.456;2023-03-26T10:41:02;9.70;68.50
70079;DHT22;57451;52.496;13.456;2023-03-26T10:50:13;9.80;68.20
70079;DHT22;57451;52.496;13.456;2023-03-26T10:52:59;9.90;68.20
70079;DHT22;57451;52.496;13.456;2023-03-26T10:55:33;9.90;68.40
70079;DHT22;57451;52.496;13.456;2023-03-26T10:58:17;9.90;68.40
70079;DHT22;57451;52.496;13.456;2023-03-26T11:00:53;9.90;68.10
70079;DHT22;57451;52.496;13.456;2023-03-26T11:03:36;9.80;68.40
70079;DHT22;57451;52.496;13.456;2023-03-26T11:06:35;9.90;68.30
70079;DHT22;57451;52.496;13.456;2023-03-26T11:09:23;9.90;68.50
70079;DHT22;57451;52.496;13.456;2023-03-26T11:12:09;10.00;68.50
70079;DHT22;57451;52.496;13.456;2023-03-26T11:15:02;10.00;68.40
70079;DHT22;57451;52.496;13.456;2023-03-26T11:17:43;10.00;68.20
70079;DHT22;57451;52.496;13.456;2023-03-26T11:20:16;10.10;68.30
70079;DHT22;57451;52.496;13.456;2023-03-26T11:23:00;10.10;68.50
70079;DHT22;57451;52.496;13.456;2023-03-26T11:25:43;10.20;69.00
70079;DHT22;57451;52.496;13.456;2023-03-26T11:28:26;10.30;68.90
70079;DHT22;57451;52.496;13.456;2023-03-26T11:30:57;10.40;69.50
70079;DHT22;57451;52.496;13.456;2023-03-26T11:33:33;10.50;68.40
70079;DHT22;57451;52.496;13.456;2023-03-26T11:36:07;10.60;67.60
70079;DHT22;57451;52.496;13.456;2023-03-26T11:38:43;10.80;66.90
70079;DHT22;57451;52.496;13.456;2023-03-26T11:41:28;11.00;67.40
70079;DHT22;57451;52.496;13.456;2023-03-26T11:44:09;11.30;67.20
70079;DHT22;57451;52.496;13.456;2023-03-26T11:46:55;11.50;66.00
70079;DHT22;57451;52.496;13.456;2023-03-26T11:49:26;11.70;64.90
70079;DHT22;57451;52.496;13.456;2023-03-26T11:51:59;11.70;64.30
70079;DHT22;57451;52.496;13.456;2023-03-26T11:54:37;11.90;64.30
70079;DHT22;57451;52.496;13.456;2023-03-26T11:57:08;12.00;63.50
70079;DHT22;57451;52.496;13.456;2023-03-26T11:59:41;12.10;63.50
70079;DHT22;57451;52.496;13.456;2023-03-26T12:02:26;12.10;63.60
70079;DHT22;57451;52.496;13.456;2023-03-26T12:05:14;12.20;63.50
70079;DHT22;57451;52.496;13.456;2023-03-26T12:07:59;12.20;62.30
70079;DHT22;57451;52.496;13.456;2023-03-26T12:10:33;12.20;62.00
70079;DHT22;57451;52.496;13.456;2023-03-26T12:13:21;12.30;61.90
70079;DHT22;57451;52.496;13.456;2023-03-26T12:15:56;12.30;62.30
70079;DHT22;57451;52.496;13.456;2023-03-26T12:18:32;12.30;61.80
70079;DHT22;57451;52.496;13.456;2023-03-26T12:21:05;12.30;61.40
70079;DHT22;57451;52.496;13.456;2023-03-26T12:23:55;12.40;62.50
70079;DHT22;57451;52.496;13.456;2023-03-26T12:26:34;12.50;62.20
70079;DHT22;57451;52.496;13.456;2023-03-26T12:29:09;12.50;61.90
70079;DHT22;57451;52.496;13.456;2023-03-26T12:31:53;12.50;61.10
70079;DHT22;57451;52.496;13.456;2023-03-26T12:34:22;12.60;61.80
70079;DHT22;57451;52.496;13.456;2023-03-26T12:36:52;12.60;61.30
70079;DHT22;57451;52.496;13.456;2023-03-26T12:39:33;12.70;60.60
70079;DHT22;57451;52.496;13.456;2023-03-26T12:42:26;12.60;60.90
70079;DHT22;57451;52.496;13.456;2023-03-26T12:45:28;12.70;61.10
70079;DHT22;57451;52.496;13.456;2023-03-26T12:47:58;12.90;60.90
70079;DHT22;57451;52.496;13.456;2023-03-26T12:50:43;13.00;60.90
70079;DHT22;57451;52.496;13.456;2023-03-26T12:56:34;13.40;56.60
70079;DHT22;57451;52.496;13.456;2023-03-26T12:59:26;13.50;54.60
70079;DHT22;57451;52.496;13.456;2023-03-26T13:02:03;13.70;56.60
70079;DHT22;57451;52.496;13.456;2023-03-26T13:04:54;13.90;56.40
70079;DHT22;57451;52.496;13.456;2023-03-26T13:07:58;14.20;55.70
70079;DHT22;57451;52.496;13.456;2023-03-26T13:10:53;14.30;54.50
70079;DHT22;57451;52.496;13.456;2023-03-26T13:13:48;14.40;55.70
70079;DHT22;57451;52.496;13.456;2023-03-26T13:16:32;14.70;55.10
70079;DHT22;57451;52.496;13.456;2023-03-26T13:19:05;14.70;52.80
70079;DHT22;57451;52.496;13.456;2023-03-26T13:24:55;14.60;51.20
70079;DHT22;57451;52.496;13.456;2023-03-26T13:27:44;14.50;52.50
70079;DHT22;57451;52.496;13.456;2023-03-26T13:30:22;14.60;52.50
70079;DHT22;57451;52.496;13.456;2023-03-26T13:33:05;14.50;51.90
70079;DHT22;57451;52.496;13.456;2023-03-26T13:35:50;14.30;51.00
70079;DHT22;57451;52.496;13.456;2023-03-26T13:38:51;14.00;51.20
70079;DHT22;57451;52.496;13.456;2023-03-26T13:41:34;13.80;51.30
70079;DHT22;57451;52.496;13.456;2023-03-26T13:44:10;13.70;51.90
70079;DHT22;57451;52.496;13.456;2023-03-26T13:46:44;13.40;50.70
70079;DHT22;57451;52.496;13.456;2023-03-26T13:49:26;13.30;53.20
70079;DHT22;57451;52.496;13.456;2023-03-26T13:51:59;13.40;51.70
70079;DHT22;57451;52.496;13.456;2023-03-26T13:54:31;13.30;52.60
70079;DHT22;57451;52.496;13.456;2023-03-26T13:57:05;13.30;53.40
70079;DHT22;57451;52.496;13.456;2023-03-26T13:59:39;13.30;53.80
70079;DHT22;57451;52.496;13.456;2023-03-26T14:02:32;13.30;52.70
70079;DHT22;57451;52.496;13.456;2023-03-26T14:05:20;13.10;53.10
70079;DHT22;57451;52.496;13.456;2023-03-26T14:07:50;13.10;52.40
70079;DHT22;57451;52.496;13.456;2023-03-26T14:10:23;13.10;53.50
70079;DHT22;57451;52.496;13.456;2023-03-26T14:12:55;13.20;54.10
70079;DHT22;57451;52.496;13.456;2023-03-26T14:15:27;13.30;53.60
70079;DHT22;57451;52.496;13.456;2023-03-26T14:18:03;13.40;54.60
70079;DHT22;57451;52.496;13.456;2023-03-26T14:23:47;13.80;51.50
70079;DHT22;57451;52.496;13.456;2023-03-26T14:26:28;13.90;53.20
70079;DHT22;57451;52.496;13.456;2023-03-26T14:29:23;14.30;53.10
70079;DHT22;57451;52.496;13.456;2023-03-26T14:32:17;14.60;51.30
70079;DHT22;57451;52.496;13.456;2023-03-26T14:35:05;15.00;51.70
70079;DHT22;57451;52.496;13.456;2023-03-26T14:37:55;15.40;50.20
70079;DHT22;57451;52.496;13.456;2023-03-26T14:40:35;15.70;50.40
70079;DHT22;57451;52.496;13.456;2023-03-26T14:43:20;16.00;48.80
70079;DHT22;57451;52.496;13.456;2023-03-26T14:46:04;16.10;47.00
70079;DHT22;57451;52.496;13.456;2023-03-26T14:48:47;16.10;47.70
70079;DHT22;57451;52.496;13.456;2023-03-26T14:51:27;16.30;49.00
70079;DHT22;57451;52.496;13.456;2023-03-26T14:54:02;16.40;47.70
70079;DHT22;57451;52.496;13.456;2023-03-26T14:56:44;16.20;47.60
70079;DHT22;57451;52.496;13.456;2023-03-26T15:02:54;15.90;45.90
70079;DHT22;57451;52.496;13.456;2023-03-26T15:05:58;15.80;49.00
70079;DHT22;57451;52.496;13.456;2023-03-26T15:11:42;15.60;48.70
70079;DHT22;57451;52.496;13.456;2023-03-26T15:14:35;15.60;47.90
70079;DHT22;57451;52.496;13.456;2023-03-26T15:17:36;15.60;49.00
70079;DHT22;57451;52.496;13.456;2023-03-26T15:30:11;15.50;48.40
70079;DHT22;57451;52.496;13.456;2023-03-26T15:33:17;15.30;47.70
70079;DHT22;57451;52.496;13.456;2023-03-26T15:41:59;14.90;48.50
70079;DHT22;57451;52.496;13.456;2023-03-26T15:44:42;14.80;49.10
70079;DHT22;57451;52.496;13.456;2023-03-26T15:50:36;14.70;50.30
70079;DHT22;57451;52.496;13.456;2023-03-26T15:53:15;14.60;49.80
70079;DHT22;57451;52.496;13.456;2023-03-26T15:55:57;14.50;50.00
70079;DHT22;57451;52.496;13.456;2023-03-26T15:58:32;14.50;50.30
70079;DHT22;57451;52.496;13.456;2023-03-26T16:01:09;14.50;50.50
70079;DHT22;57451;52.496;13.456;2023-03-26T16:03:49;14.40;50.40
70079;DHT22;57451;52.496;13.456;2023-03-26T16:06:28;14.20;49.90
70079;DHT22;57451;52.496;13.456;2023-03-26T16:09:07;14.10;50.80
70079;DHT22;57451;52.496;13.456;2023-03-26T16:11:52;14.10;50.90
70079;DHT22;57451;52.496;13.456;2023-03-26T16:14:23;14.10;51.70
70079;DHT22;57451;52.496;13.456;2023-03-26T16:17:05;14.10;51.70
70079;DHT22;57451;52.496;13.456;2023-03-26T16:19:49;14.10;51.90
70079;DHT22;57451;52.496;13.456;2023-03-26T16:22:44;14.00;51.70
70079;DHT22;57451;52.496;13.456;2023-03-26T16:25:28;14.00;51.50
70079;DHT22;57451;52.496;13.456;2023-03-26T16:28:17;13.90;51.30
70079;DHT22;57451;52.496;13.456;2023-03-26T16:34:25;13.60;51.40
70079;DHT22;57451;52.496;13.456;2023-03-26T16:36:54;13.60;51.10
70079;DHT22;57451;52.496;13.456;2023-03-26T16:39:37;13.40;51.20
70079;DHT22;57451;52.496;13.456;2023-03-26T16:45:17;13.20;51.10
70079;DHT22;57451;52.496;13.456;2023-03-26T16:47:56;12.90;51.10
70079;DHT22;57451;52.496;13.456;2023-03-26T16:50:32;12.80;52.00
70079;DHT22;57451;52.496;13.456;2023-03-26T16:53:12;12.80;52.00
70079;DHT22;57451;52.496;13.456;2023-03-26T16:55:45;12.70;51.90
70079;DHT22;57451;52.496;13.456;2023-03-26T16:58:18;12.60;52.50
70079;DHT22;57451;52.496;13.456;2023-03-26T17:00:53;12.60;52.80
70079;DHT22;57451;52.496;13.456;2023-03-26T17:03:37;12.50;52.80
70079;DHT22;57451;52.496;13.456;2023-03-26T17:06:27;12.50;52.70
70079;DHT22;57451;52.496;13.456;2023-03-26T17:09:01;12.40;52.60
70079;DHT22;57451;52.496;13.456;2023-03-26T17:11:40;12.30;53.00
70079;DHT22;57451;52.496;13.456;2023-03-26T17:14:24;12.20;53.40
70079;DHT22;57451;52.496;13.456;2023-03-26T17:17:08;12.10;53.60
70079;DHT22;57451;52.496;13.456;2023-03-26T17:19:49;12.00;53.70
70079;DHT22;57451;52.496;13.456;2023-03-26T17:22:32;11.90;53.80
70079;DHT22;57451;52.496;13.456;2023-03-26T17:25:21;11.80;54.00
70079;DHT22;57451;52.496;13.456;2023-03-26T17:28:10;11.70;54.20
70079;DHT22;57451;52.496;13.456;2023-03-26T17:30:52;11.70;54.50
70079;DHT22;57451;52.496;13.456;2023-03-26T17:33:27;11.60;54.50
70079;DHT22;57451;52.496;13.456;2023-03-26T17:39:17;11.40;54.50
70079;DHT22;57451;52.496;13.456;2023-03-26T17:42:15;11.40;55.00
70079;DHT22;57451;52.496;13.456;2023-03-26T17:44:48;11.30;55.00
70079;DHT22;57451;52.496;13.456;2023-03-26T17:47:25;11.20;55.10
70079;DHT22;57451;52.496;13.456;2023-03-26T17:49:58;11.20;55.30
70079;DHT22;57451;52.496;13.456;2023-03-26T17:52:35;11.10;55.60